Catheys Valley, California
Current Conditions -  °F | °C
As of 11:05 AM on Friday 21 Nov 2014 (Local Time) from KMCE Reporting Station
Overcast Overcast  
Wind Chill: 54°   Ceiling: 1100
Heat Index: 54°   Visibility: 7mi
Dew Point: 48°   Wind: 6mph
Humidity: 80%   Direction: 350°N
Pressure: 30.12"   Gusts: NA
Location:  37.41°N, 120.1°W
Report Text: KMCE 211905Z AUTO 35005KT 7SM OVC011 12/09 A3012 RMK AO2 T01220089
Loading
Personal Weather Stations






























Interactive Weather Map New forecast layout! Learn more

10-Day Weather Forecast

Advertisements
Track Severe Weather on mobile